sensor_id;sensor_type;location;lat;lon;timestamp;P1;durP1;ratioP1;P2;durP2;ratioP2
19643;SDS011;9970;-36.854;174.870;2023-02-26T00:02:17;5.10;;;5.10;;
19643;SDS011;9970;-36.854;174.870;2023-02-26T00:05:07;4.90;;;4.90;;
19643;SDS011;9970;-36.854;174.870;2023-02-26T00:11:08;5.23;;;5.23;;
19643;SDS011;9970;-36.854;174.870;2023-02-26T00:13:44;6.20;;;6.20;;
19643;SDS011;9970;-36.854;174.870;2023-02-26T00:16:29;5.80;;;5.80;;
19643;SDS011;9970;-36.854;174.870;2023-02-26T00:19:15;6.00;;;6.00;;
19643;SDS011;9970;-36.854;174.870;2023-02-26T00:21:46;6.40;;;6.40;;
19643;SDS011;9970;-36.854;174.870;2023-02-26T00:24:23;6.20;;;6.20;;
19643;SDS011;9970;-36.854;174.870;2023-02-26T00:27:00;6.10;;;6.10;;
19643;SDS011;9970;-36.854;174.870;2023-02-26T00:29:34;6.20;;;6.20;;
19643;SDS011;9970;-36.854;174.870;2023-02-26T00:32:11;5.80;;;5.80;;
19643;SDS011;9970;-36.854;174.870;2023-02-26T00:34:47;6.10;;;6.10;;
19643;SDS011;9970;-36.854;174.870;2023-02-26T00:37:30;5.60;;;5.60;;
19643;SDS011;9970;-36.854;174.870;2023-02-26T00:43:15;5.87;;;5.87;;
19643;SDS011;9970;-36.854;174.870;2023-02-26T00:48:31;5.90;;;5.90;;
19643;SDS011;9970;-36.854;174.870;2023-02-26T00:51:30;5.30;;;5.30;;
19643;SDS011;9970;-36.854;174.870;2023-02-26T00:56:53;5.30;;;5.30;;
19643;SDS011;9970;-36.854;174.870;2023-02-26T00:59:28;5.20;;;5.20;;
19643;SDS011;9970;-36.854;174.870;2023-02-26T01:02:05;5.10;;;5.10;;
19643;SDS011;9970;-36.854;174.870;2023-02-26T01:04:38;5.40;;;5.40;;
19643;SDS011;9970;-36.854;174.870;2023-02-26T01:07:12;5.40;;;5.40;;
19643;SDS011;9970;-36.854;174.870;2023-02-26T01:09:47;5.63;;;5.63;;
19643;SDS011;9970;-36.854;174.870;2023-02-26T01:12:21;5.40;;;5.40;;
19643;SDS011;9970;-36.854;174.870;2023-02-26T01:14:55;5.60;;;5.60;;
19643;SDS011;9970;-36.854;174.870;2023-02-26T01:20:22;5.60;;;5.60;;
19643;SDS011;9970;-36.854;174.870;2023-02-26T01:23:10;5.77;;;5.77;;
19643;SDS011;9970;-36.854;174.870;2023-02-26T01:25:48;5.70;;;5.70;;
19643;SDS011;9970;-36.854;174.870;2023-02-26T01:28:24;5.10;;;5.10;;
19643;SDS011;9970;-36.854;174.870;2023-02-26T01:30:58;5.30;;;5.30;;
19643;SDS011;9970;-36.854;174.870;2023-02-26T01:33:40;5.23;;;5.23;;
19643;SDS011;9970;-36.854;174.870;2023-02-26T01:36:16;5.60;;;5.60;;
19643;SDS011;9970;-36.854;174.870;2023-02-26T01:42:16;5.17;;;5.17;;
19643;SDS011;9970;-36.854;174.870;2023-02-26T01:44:51;5.43;;;5.43;;
19643;SDS011;9970;-36.854;174.870;2023-02-26T01:50:20;5.10;;;5.10;;
19643;SDS011;9970;-36.854;174.870;2023-02-26T01:55:30;5.10;;;5.10;;
19643;SDS011;9970;-36.854;174.870;2023-02-26T01:58:03;5.40;;;5.40;;
19643;SDS011;9970;-36.854;174.870;2023-02-26T02:00:36;5.00;;;5.00;;
19643;SDS011;9970;-36.854;174.870;2023-02-26T02:03:10;5.13;;;5.13;;
19643;SDS011;9970;-36.854;174.870;2023-02-26T02:06:28;4.80;;;4.80;;
19643;SDS011;9970;-36.854;174.870;2023-02-26T02:08:24;5.10;;;5.10;;
19643;SDS011;9970;-36.854;174.870;2023-02-26T02:10:57;5.00;;;5.00;;
19643;SDS011;9970;-36.854;174.870;2023-02-26T02:31:36;5.10;;;5.10;;
19643;SDS011;9970;-36.854;174.870;2023-02-26T02:40:24;5.20;;;5.20;;
19643;SDS011;9970;-36.854;174.870;2023-02-26T02:46:10;5.40;;;5.40;;
19643;SDS011;9970;-36.854;174.870;2023-02-26T02:49:06;5.30;;;5.30;;
19643;SDS011;9970;-36.854;174.870;2023-02-26T02:51:48;5.20;;;5.20;;
19643;SDS011;9970;-36.854;174.870;2023-02-26T02:54:42;5.30;;;5.30;;
19643;SDS011;9970;-36.854;174.870;2023-02-26T02:57:16;5.40;;;5.40;;
19643;SDS011;9970;-36.854;174.870;2023-02-26T02:59:53;4.90;;;4.90;;
19643;SDS011;9970;-36.854;174.870;2023-02-26T03:05:18;5.20;;;5.20;;
19643;SDS011;9970;-36.854;174.870;2023-02-26T03:10:36;4.80;;;4.80;;
19643;SDS011;9970;-36.854;174.870;2023-02-26T03:13:14;5.10;;;5.10;;
19643;SDS011;9970;-36.854;174.870;2023-02-26T03:24:14;5.40;;;5.40;;
19643;SDS011;9970;-36.854;174.870;2023-02-26T03:27:18;5.50;;;5.50;;
19643;SDS011;9970;-36.854;174.870;2023-02-26T03:36:30;5.70;;;5.70;;
19643;SDS011;9970;-36.854;174.870;2023-02-26T03:39:22;5.20;;;5.20;;
19643;SDS011;9970;-36.854;174.870;2023-02-26T03:42:02;5.37;;;5.37;;
19643;SDS011;9970;-36.854;174.870;2023-02-26T03:47:40;5.10;;;5.10;;
19643;SDS011;9970;-36.854;174.870;2023-02-26T03:50:18;5.40;;;5.40;;
19643;SDS011;9970;-36.854;174.870;2023-02-26T03:53:09;5.30;;;5.30;;
19643;SDS011;9970;-36.854;174.870;2023-02-26T03:58:27;5.30;;;5.30;;
19643;SDS011;9970;-36.854;174.870;2023-02-26T04:01:10;5.40;;;5.40;;
19643;SDS011;9970;-36.854;174.870;2023-02-26T04:07:44;5.50;;;5.50;;
19643;SDS011;9970;-36.854;174.870;2023-02-26T04:10:10;5.50;;;5.50;;
19643;SDS011;9970;-36.854;174.870;2023-02-26T04:13:08;5.60;;;5.60;;
19643;SDS011;9970;-36.854;174.870;2023-02-26T04:15:52;5.30;;;5.30;;
19643;SDS011;9970;-36.854;174.870;2023-02-26T04:18:25;5.20;;;5.20;;
19643;SDS011;9970;-36.854;174.870;2023-02-26T04:21:03;5.30;;;5.30;;
19643;SDS011;9970;-36.854;174.870;2023-02-26T04:23:57;5.60;;;5.60;;
19643;SDS011;9970;-36.854;174.870;2023-02-26T04:26:43;5.30;;;5.30;;
19643;SDS011;9970;-36.854;174.870;2023-02-26T04:29:37;4.90;;;4.90;;
19643;SDS011;9970;-36.854;174.870;2023-02-26T04:32:37;5.20;;;5.20;;
19643;SDS011;9970;-36.854;174.870;2023-02-26T04:42:43;5.20;;;5.20;;
19643;SDS011;9970;-36.854;174.870;2023-02-26T04:45:17;5.30;;;5.30;;
19643;SDS011;9970;-36.854;174.870;2023-02-26T04:47:52;5.10;;;5.10;;
19643;SDS011;9970;-36.854;174.870;2023-02-26T04:50:25;5.27;;;5.27;;
19643;SDS011;9970;-36.854;174.870;2023-02-26T04:56:14;5.70;;;5.70;;
19643;SDS011;9970;-36.854;174.870;2023-02-26T04:58:52;6.13;;;6.13;;
19643;SDS011;9970;-36.854;174.870;2023-02-26T05:01:30;5.90;;;5.90;;
19643;SDS011;9970;-36.854;174.870;2023-02-26T05:04:17;5.60;;;5.60;;
19643;SDS011;9970;-36.854;174.870;2023-02-26T05:06:53;5.60;;;5.60;;
19643;SDS011;9970;-36.854;174.870;2023-02-26T05:09:30;5.50;;;5.50;;
19643;SDS011;9970;-36.854;174.870;2023-02-26T05:12:08;5.17;;;5.17;;
19643;SDS011;9970;-36.854;174.870;2023-02-26T05:14:43;5.00;;;5.00;;
19643;SDS011;9970;-36.854;174.870;2023-02-26T05:17:24;5.23;;;5.23;;
19643;SDS011;9970;-36.854;174.870;2023-02-26T05:19:56;4.90;;;4.90;;
19643;SDS011;9970;-36.854;174.870;2023-02-26T05:22:35;5.10;;;5.10;;
19643;SDS011;9970;-36.854;174.870;2023-02-26T05:28:23;5.43;;;5.43;;
19643;SDS011;9970;-36.854;174.870;2023-02-26T05:31:01;5.00;;;5.00;;
19643;SDS011;9970;-36.854;174.870;2023-02-26T05:33:35;5.10;;;5.10;;
19643;SDS011;9970;-36.854;174.870;2023-02-26T05:36:08;5.00;;;5.00;;
19643;SDS011;9970;-36.854;174.870;2023-02-26T05:38:47;5.00;;;5.00;;
19643;SDS011;9970;-36.854;174.870;2023-02-26T05:41:37;4.80;;;4.80;;
19643;SDS011;9970;-36.854;174.870;2023-02-26T05:44:19;4.60;;;4.60;;
19643;SDS011;9970;-36.854;174.870;2023-02-26T05:47:08;4.50;;;4.50;;
19643;SDS011;9970;-36.854;174.870;2023-02-26T05:50:02;4.60;;;4.60;;
19643;SDS011;9970;-36.854;174.870;2023-02-26T05:52:43;4.50;;;4.50;;
19643;SDS011;9970;-36.854;174.870;2023-02-26T05:55:27;4.70;;;4.70;;
19643;SDS011;9970;-36.854;174.870;2023-02-26T05:58:17;4.90;;;4.90;;
19643;SDS011;9970;-36.854;174.870;2023-02-26T06:01:01;4.80;;;4.80;;
19643;SDS011;9970;-36.854;174.870;2023-02-26T06:04:20;4.90;;;4.90;;
19643;SDS011;9970;-36.854;174.870;2023-02-26T06:07:11;4.40;;;4.40;;
19643;SDS011;9970;-36.854;174.870;2023-02-26T06:14:02;5.00;;;5.00;;
19643;SDS011;9970;-36.854;174.870;2023-02-26T06:23:15;4.97;;;4.97;;
19643;SDS011;9970;-36.854;174.870;2023-02-26T06:26:15;4.90;;;4.90;;
19643;SDS011;9970;-36.854;174.870;2023-02-26T06:29:18;5.00;;;5.00;;
19643;SDS011;9970;-36.854;174.870;2023-02-26T06:39:10;5.97;;;5.87;;
19643;SDS011;9970;-36.854;174.870;2023-02-26T06:42:21;5.30;;;5.30;;
19643;SDS011;9970;-36.854;174.870;2023-02-26T06:49:06;4.80;;;4.80;;
19643;SDS011;9970;-36.854;174.870;2023-02-26T06:55:41;5.87;;;5.87;;
19643;SDS011;9970;-36.854;174.870;2023-02-26T07:12:47;4.67;;;4.67;;
19643;SDS011;9970;-36.854;174.870;2023-02-26T07:35:43;4.90;;;4.90;;
19643;SDS011;9970;-36.854;174.870;2023-02-26T07:50:40;5.03;;;5.03;;
19643;SDS011;9970;-36.854;174.870;2023-02-26T08:13:39;4.90;;;4.90;;
19643;SDS011;9970;-36.854;174.870;2023-02-26T08:20:20;5.10;;;5.10;;
19643;SDS011;9970;-36.854;174.870;2023-02-26T08:54:03;5.30;;;5.30;;
19643;SDS011;9970;-36.854;174.870;2023-02-26T08:57:14;5.10;;;5.10;;
19643;SDS011;9970;-36.854;174.870;2023-02-26T09:14:12;5.20;;;5.20;;
19643;SDS011;9970;-36.854;174.870;2023-02-26T09:24:26;4.80;;;4.80;;
19643;SDS011;9970;-36.854;174.870;2023-02-26T09:48:19;5.00;;;5.00;;
19643;SDS011;9970;-36.854;174.870;2023-02-26T10:02:28;5.10;;;5.10;;
19643;SDS011;9970;-36.854;174.870;2023-02-26T10:16:18;5.80;;;5.80;;
19643;SDS011;9970;-36.854;174.870;2023-02-26T10:20:18;5.30;;;5.30;;
19643;SDS011;9970;-36.854;174.870;2023-02-26T10:35:44;5.50;;;5.50;;
19643;SDS011;9970;-36.854;174.870;2023-02-26T10:50:47;5.40;;;5.40;;
19643;SDS011;9970;-36.854;174.870;2023-02-26T10:53:46;5.43;;;5.43;;
19643;SDS011;9970;-36.854;174.870;2023-02-26T10:56:48;5.50;;;5.50;;
19643;SDS011;9970;-36.854;174.870;2023-02-26T10:59:39;5.50;;;5.50;;
19643;SDS011;9970;-36.854;174.870;2023-02-26T11:02:28;5.60;;;5.60;;
19643;SDS011;9970;-36.854;174.870;2023-02-26T11:05:48;5.40;;;5.40;;
19643;SDS011;9970;-36.854;174.870;2023-02-26T11:08:48;5.57;;;5.57;;
19643;SDS011;9970;-36.854;174.870;2023-02-26T11:27:36;5.40;;;5.40;;
19643;SDS011;9970;-36.854;174.870;2023-02-26T11:41:26;5.50;;;5.50;;
19643;SDS011;9970;-36.854;174.870;2023-02-26T11:47:33;5.80;;;5.80;;
19643;SDS011;9970;-36.854;174.870;2023-02-26T11:57:06;5.80;;;5.80;;
19643;SDS011;9970;-36.854;174.870;2023-02-26T11:59:33;5.70;;;5.70;;
19643;SDS011;9970;-36.854;174.870;2023-02-26T12:02:31;5.60;;;5.60;;
19643;SDS011;9970;-36.854;174.870;2023-02-26T12:05:23;5.50;;;5.50;;
19643;SDS011;9970;-36.854;174.870;2023-02-26T12:21:14;5.40;;;5.40;;
19643;SDS011;9970;-36.854;174.870;2023-02-26T12:24:32;5.70;;;5.70;;
19643;SDS011;9970;-36.854;174.870;2023-02-26T12:47:33;6.30;;;6.30;;
19643;SDS011;9970;-36.854;174.870;2023-02-26T12:57:21;6.10;;;6.10;;
19643;SDS011;9970;-36.854;174.870;2023-02-26T13:00:48;5.90;;;5.90;;
19643;SDS011;9970;-36.854;174.870;2023-02-26T13:32:43;6.10;;;6.10;;
19643;SDS011;9970;-36.854;174.870;2023-02-26T13:59:53;6.20;;;6.20;;
19643;SDS011;9970;-36.854;174.870;2023-02-26T14:23:47;6.30;;;6.30;;
19643;SDS011;9970;-36.854;174.870;2023-02-26T14:26:50;6.10;;;6.10;;
19643;SDS011;9970;-36.854;174.870;2023-02-26T14:29:56;6.40;;;6.40;;
19643;SDS011;9970;-36.854;174.870;2023-02-26T14:36:01;5.97;;;5.97;;
19643;SDS011;9970;-36.854;174.870;2023-02-26T14:38:59;5.90;;;5.90;;
19643;SDS011;9970;-36.854;174.870;2023-02-26T14:42:03;5.90;;;5.90;;
19643;SDS011;9970;-36.854;174.870;2023-02-26T14:48:17;5.80;;;5.80;;
19643;SDS011;9970;-36.854;174.870;2023-02-26T14:58:07;5.77;;;5.77;;
19643;SDS011;9970;-36.854;174.870;2023-02-26T15:04:46;6.10;;;6.10;;
19643;SDS011;9970;-36.854;174.870;2023-02-26T15:08:04;6.10;;;6.10;;
19643;SDS011;9970;-36.854;174.870;2023-02-26T15:18:19;6.00;;;6.00;;
19643;SDS011;9970;-36.854;174.870;2023-02-26T15:24:38;6.20;;;6.20;;
19643;SDS011;9970;-36.854;174.870;2023-02-26T15:30:44;6.50;;;6.50;;
19643;SDS011;9970;-36.854;174.870;2023-02-26T15:37:26;6.10;;;6.10;;
19643;SDS011;9970;-36.854;174.870;2023-02-26T15:40:02;6.00;;;6.00;;
19643;SDS011;9970;-36.854;174.870;2023-02-26T15:43:07;5.90;;;5.90;;
19643;SDS011;9970;-36.854;174.870;2023-02-26T15:46:09;5.80;;;5.80;;
19643;SDS011;9970;-36.854;174.870;2023-02-26T15:48:57;5.80;;;5.80;;
19643;SDS011;9970;-36.854;174.870;2023-02-26T15:51:35;5.80;;;5.80;;
19643;SDS011;9970;-36.854;174.870;2023-02-26T15:54:15;5.67;;;5.67;;
19643;SDS011;9970;-36.854;174.870;2023-02-26T15:56:53;5.40;;;5.40;;
19643;SDS011;9970;-36.854;174.870;2023-02-26T15:59:59;5.20;;;5.20;;
19643;SDS011;9970;-36.854;174.870;2023-02-26T16:02:41;4.90;;;4.90;;
19643;SDS011;9970;-36.854;174.870;2023-02-26T16:05:36;4.80;;;4.80;;
19643;SDS011;9970;-36.854;174.870;2023-02-26T16:08:10;4.80;;;4.80;;
19643;SDS011;9970;-36.854;174.870;2023-02-26T16:10:45;4.90;;;4.90;;
19643;SDS011;9970;-36.854;174.870;2023-02-26T16:13:29;4.57;;;4.57;;
19643;SDS011;9970;-36.854;174.870;2023-02-26T16:16:07;4.60;;;4.60;;
19643;SDS011;9970;-36.854;174.870;2023-02-26T16:18:36;4.50;;;4.50;;
19643;SDS011;9970;-36.854;174.870;2023-02-26T16:21:11;4.70;;;4.70;;
19643;SDS011;9970;-36.854;174.870;2023-02-26T16:23:48;5.87;;;5.87;;
19643;SDS011;9970;-36.854;174.870;2023-02-26T16:26:38;4.50;;;4.50;;
19643;SDS011;9970;-36.854;174.870;2023-02-26T16:29:16;4.47;;;4.47;;
19643;SDS011;9970;-36.854;174.870;2023-02-26T16:32:00;4.50;;;4.50;;
19643;SDS011;9970;-36.854;174.870;2023-02-26T16:34:52;5.00;;;5.00;;
19643;SDS011;9970;-36.854;174.870;2023-02-26T16:37:49;5.27;;;5.27;;
19643;SDS011;9970;-36.854;174.870;2023-02-26T16:40:25;5.13;;;5.13;;
19643;SDS011;9970;-36.854;174.870;2023-02-26T16:46:09;4.90;;;4.90;;
19643;SDS011;9970;-36.854;174.870;2023-02-26T16:51:36;5.17;;;5.17;;
19643;SDS011;9970;-36.854;174.870;2023-02-26T16:54:18;5.10;;;5.10;;
19643;SDS011;9970;-36.854;174.870;2023-02-26T16:56:51;5.30;;;5.30;;
19643;SDS011;9970;-36.854;174.870;2023-02-26T16:59:35;5.20;;;5.20;;
19643;SDS011;9970;-36.854;174.870;2023-02-26T17:02:34;5.00;;;5.00;;
19643;SDS011;9970;-36.854;174.870;2023-02-26T17:05:19;5.10;;;5.10;;
19643;SDS011;9970;-36.854;174.870;2023-02-26T17:07:52;5.20;;;5.20;;
19643;SDS011;9970;-36.854;174.870;2023-02-26T17:10:32;5.40;;;5.40;;
19643;SDS011;9970;-36.854;174.870;2023-02-26T17:16:37;5.30;;;5.30;;
19643;SDS011;9970;-36.854;174.870;2023-02-26T17:26:03;4.50;;;4.50;;
19643;SDS011;9970;-36.854;174.870;2023-02-26T17:28:53;5.20;;;5.20;;
19643;SDS011;9970;-36.854;174.870;2023-02-26T17:31:44;5.10;;;5.10;;
19643;SDS011;9970;-36.854;174.870;2023-02-26T17:34:16;5.10;;;5.10;;
19643;SDS011;9970;-36.854;174.870;2023-02-26T17:36:51;5.80;;;5.80;;
19643;SDS011;9970;-36.854;174.870;2023-02-26T17:39:25;5.80;;;5.80;;
19643;SDS011;9970;-36.854;174.870;2023-02-26T17:41:59;6.00;;;6.00;;
19643;SDS011;9970;-36.854;174.870;2023-02-26T17:44:36;5.90;;;5.90;;
19643;SDS011;9970;-36.854;174.870;2023-02-26T17:47:22;5.90;;;5.90;;
19643;SDS011;9970;-36.854;174.870;2023-02-26T17:49:52;5.80;;;5.80;;
19643;SDS011;9970;-36.854;174.870;2023-02-26T17:52:34;5.40;;;5.40;;
19643;SDS011;9970;-36.854;174.870;2023-02-26T17:57:51;4.83;;;4.83;;
19643;SDS011;9970;-36.854;174.870;2023-02-26T18:00:42;4.70;;;4.70;;
19643;SDS011;9970;-36.854;174.870;2023-02-26T18:03:24;5.10;;;5.10;;
19643;SDS011;9970;-36.854;174.870;2023-02-26T18:06:10;5.00;;;5.00;;
19643;SDS011;9970;-36.854;174.870;2023-02-26T18:08:44;4.60;;;4.60;;
19643;SDS011;9970;-36.854;174.870;2023-02-26T18:11:22;4.60;;;4.60;;
19643;SDS011;9970;-36.854;174.870;2023-02-26T18:13:55;4.40;;;4.40;;
19643;SDS011;9970;-36.854;174.870;2023-02-26T18:16:34;5.00;;;5.00;;
19643;SDS011;9970;-36.854;174.870;2023-02-26T18:19:07;4.50;;;4.50;;
19643;SDS011;9970;-36.854;174.870;2023-02-26T18:21:42;4.30;;;4.30;;
19643;SDS011;9970;-36.854;174.870;2023-02-26T18:24:15;4.40;;;4.40;;
19643;SDS011;9970;-36.854;174.870;2023-02-26T18:26:48;4.60;;;4.60;;
19643;SDS011;9970;-36.854;174.870;2023-02-26T18:29:21;4.20;;;4.20;;
19643;SDS011;9970;-36.854;174.870;2023-02-26T18:31:54;4.30;;;4.30;;
19643;SDS011;9970;-36.854;174.870;2023-02-26T18:34:29;4.30;;;4.30;;
19643;SDS011;9970;-36.854;174.870;2023-02-26T18:37:09;4.30;;;4.30;;
19643;SDS011;9970;-36.854;174.870;2023-02-26T18:39:44;4.10;;;4.10;;
19643;SDS011;9970;-36.854;174.870;2023-02-26T18:42:21;4.10;;;4.10;;
19643;SDS011;9970;-36.854;174.870;2023-02-26T18:44:55;4.10;;;4.10;;
19643;SDS011;9970;-36.854;174.870;2023-02-26T18:47:28;3.97;;;3.97;;
19643;SDS011;9970;-36.854;174.870;2023-02-26T18:50:02;4.20;;;4.20;;
19643;SDS011;9970;-36.854;174.870;2023-02-26T18:52:36;4.30;;;4.30;;
19643;SDS011;9970;-36.854;174.870;2023-02-26T18:55:09;4.20;;;4.20;;
19643;SDS011;9970;-36.854;174.870;2023-02-26T18:57:44;3.97;;;3.97;;
19643;SDS011;9970;-36.854;174.870;2023-02-26T19:00:17;4.00;;;4.00;;
19643;SDS011;9970;-36.854;174.870;2023-02-26T19:02:50;3.30;;;3.30;;
19643;SDS011;9970;-36.854;174.870;2023-02-26T19:05:26;4.30;;;4.30;;
19643;SDS011;9970;-36.854;174.870;2023-02-26T19:07:59;4.20;;;4.20;;
19643;SDS011;9970;-36.854;174.870;2023-02-26T19:10:32;4.30;;;4.30;;
19643;SDS011;9970;-36.854;174.870;2023-02-26T19:13:05;4.20;;;4.20;;
19643;SDS011;9970;-36.854;174.870;2023-02-26T19:15:38;4.30;;;4.30;;
19643;SDS011;9970;-36.854;174.870;2023-02-26T19:18:10;4.20;;;4.20;;
19643;SDS011;9970;-36.854;174.870;2023-02-26T19:20:43;4.37;;;4.37;;
19643;SDS011;9970;-36.854;174.870;2023-02-26T19:23:17;4.40;;;4.40;;
19643;SDS011;9970;-36.854;174.870;2023-02-26T19:25:53;4.30;;;4.30;;
19643;SDS011;9970;-36.854;174.870;2023-02-26T19:28:25;4.40;;;4.40;;
19643;SDS011;9970;-36.854;174.870;2023-02-26T19:30:58;4.30;;;4.30;;
19643;SDS011;9970;-36.854;174.870;2023-02-26T19:33:31;4.40;;;4.40;;
19643;SDS011;9970;-36.854;174.870;2023-02-26T19:36:05;4.50;;;4.50;;
19643;SDS011;9970;-36.854;174.870;2023-02-26T19:38:38;4.50;;;4.50;;
19643;SDS011;9970;-36.854;174.870;2023-02-26T19:41:13;4.20;;;4.20;;
19643;SDS011;9970;-36.854;174.870;2023-02-26T19:43:47;3.80;;;3.80;;
19643;SDS011;9970;-36.854;174.870;2023-02-26T19:46:20;4.27;;;4.27;;
19643;SDS011;9970;-36.854;174.870;2023-02-26T19:48:53;4.40;;;4.40;;
19643;SDS011;9970;-36.854;174.870;2023-02-26T19:51:27;4.00;;;4.00;;
19643;SDS011;9970;-36.854;174.870;2023-02-26T19:53:59;4.00;;;4.00;;
19643;SDS011;9970;-36.854;174.870;2023-02-26T19:56:32;4.30;;;4.30;;
19643;SDS011;9970;-36.854;174.870;2023-02-26T19:59:05;4.30;;;4.30;;
19643;SDS011;9970;-36.854;174.870;2023-02-26T20:01:38;4.60;;;4.60;;
19643;SDS011;9970;-36.854;174.870;2023-02-26T20:04:12;4.60;;;4.60;;
19643;SDS011;9970;-36.854;174.870;2023-02-26T20:06:45;4.60;;;4.60;;
19643;SDS011;9970;-36.854;174.870;2023-02-26T20:09:18;4.60;;;4.60;;
19643;SDS011;9970;-36.854;174.870;2023-02-26T20:11:51;4.90;;;4.90;;
19643;SDS011;9970;-36.854;174.870;2023-02-26T20:14:24;4.60;;;4.60;;
19643;SDS011;9970;-36.854;174.870;2023-02-26T20:16:57;4.50;;;4.50;;
19643;SDS011;9970;-36.854;174.870;2023-02-26T20:19:30;4.60;;;4.60;;
19643;SDS011;9970;-36.854;174.870;2023-02-26T20:22:03;4.60;;;4.60;;
19643;SDS011;9970;-36.854;174.870;2023-02-26T20:24:36;4.50;;;4.50;;
19643;SDS011;9970;-36.854;174.870;2023-02-26T20:27:09;4.80;;;4.80;;
19643;SDS011;9970;-36.854;174.870;2023-02-26T20:29:42;4.70;;;4.70;;
19643;SDS011;9970;-36.854;174.870;2023-02-26T20:35:12;4.70;;;4.70;;
19643;SDS011;9970;-36.854;174.870;2023-02-26T20:37:45;4.90;;;4.90;;
19643;SDS011;9970;-36.854;174.870;2023-02-26T20:40:18;5.00;;;5.00;;
19643;SDS011;9970;-36.854;174.870;2023-02-26T20:42:53;5.10;;;5.10;;
19643;SDS011;9970;-36.854;174.870;2023-02-26T20:45:27;4.90;;;4.90;;
19643;SDS011;9970;-36.854;174.870;2023-02-26T20:48:00;5.20;;;5.20;;
19643;SDS011;9970;-36.854;174.870;2023-02-26T20:50:33;4.90;;;4.90;;
19643;SDS011;9970;-36.854;174.870;2023-02-26T20:53:07;5.07;;;5.07;;
19643;SDS011;9970;-36.854;174.870;2023-02-26T20:55:45;5.30;;;5.30;;
19643;SDS011;9970;-36.854;174.870;2023-02-26T20:58:18;5.70;;;5.70;;
19643;SDS011;9970;-36.854;174.870;2023-02-26T21:00:53;6.10;;;6.10;;
19643;SDS011;9970;-36.854;174.870;2023-02-26T21:03:28;5.93;;;5.93;;
19643;SDS011;9970;-36.854;174.870;2023-02-26T21:06:00;6.00;;;6.00;;
19643;SDS011;9970;-36.854;174.870;2023-02-26T21:08:38;6.20;;;6.20;;
19643;SDS011;9970;-36.854;174.870;2023-02-26T21:11:12;6.30;;;6.30;;
19643;SDS011;9970;-36.854;174.870;2023-02-26T21:13:45;6.20;;;6.20;;
19643;SDS011;9970;-36.854;174.870;2023-02-26T21:16:20;5.80;;;5.80;;
19643;SDS011;9970;-36.854;174.870;2023-02-26T21:18:54;6.40;;;6.40;;
19643;SDS011;9970;-36.854;174.870;2023-02-26T21:21:28;6.80;;;6.80;;
19643;SDS011;9970;-36.854;174.870;2023-02-26T21:24:04;7.77;;;7.77;;
19643;SDS011;9970;-36.854;174.870;2023-02-26T21:26:38;6.80;;;6.80;;
19643;SDS011;9970;-36.854;174.870;2023-02-26T21:29:11;7.00;;;7.00;;
19643;SDS011;9970;-36.854;174.870;2023-02-26T21:31:44;7.30;;;7.30;;
19643;SDS011;9970;-36.854;174.870;2023-02-26T21:34:19;7.70;;;7.70;;
19643;SDS011;9970;-36.854;174.870;2023-02-26T21:36:54;7.30;;;7.30;;
19643;SDS011;9970;-36.854;174.870;2023-02-26T21:39:27;6.90;;;6.90;;
19643;SDS011;9970;-36.854;174.870;2023-02-26T21:42:00;6.90;;;6.90;;
19643;SDS011;9970;-36.854;174.870;2023-02-26T21:44:33;7.50;;;7.50;;
19643;SDS011;9970;-36.854;174.870;2023-02-26T21:47:06;8.00;;;7.90;;
19643;SDS011;9970;-36.854;174.870;2023-02-26T21:49:39;8.23;;;8.13;;
19643;SDS011;9970;-36.854;174.870;2023-02-26T21:52:12;7.70;;;7.70;;
19643;SDS011;9970;-36.854;174.870;2023-02-26T21:54:45;8.07;;;8.00;;
19643;SDS011;9970;-36.854;174.870;2023-02-26T21:57:19;7.80;;;7.80;;
19643;SDS011;9970;-36.854;174.870;2023-02-26T21:59:55;8.20;;;8.10;;
19643;SDS011;9970;-36.854;174.870;2023-02-26T22:02:28;8.60;;;8.50;;
19643;SDS011;9970;-36.854;174.870;2023-02-26T22:05:10;8.97;;;8.87;;
19643;SDS011;9970;-36.854;174.870;2023-02-26T22:07:53;8.50;;;8.40;;
19643;SDS011;9970;-36.854;174.870;2023-02-26T22:10:26;8.30;;;8.20;;
19643;SDS011;9970;-36.854;174.870;2023-02-26T22:12:59;8.00;;;8.00;;
19643;SDS011;9970;-36.854;174.870;2023-02-26T22:15:32;8.50;;;8.40;;
19643;SDS011;9970;-36.854;174.870;2023-02-26T22:18:05;8.60;;;8.50;;
19643;SDS011;9970;-36.854;174.870;2023-02-26T22:20:38;8.23;;;8.13;;
19643;SDS011;9970;-36.854;174.870;2023-02-26T22:23:11;8.30;;;8.20;;
19643;SDS011;9970;-36.854;174.870;2023-02-26T22:25:44;8.43;;;8.33;;
19643;SDS011;9970;-36.854;174.870;2023-02-26T22:28:17;8.27;;;8.17;;
19643;SDS011;9970;-36.854;174.870;2023-02-26T22:30:50;8.10;;;8.00;;
19643;SDS011;9970;-36.854;174.870;2023-02-26T22:33:24;8.20;;;8.10;;
19643;SDS011;9970;-36.854;174.870;2023-02-26T22:35:58;7.93;;;7.93;;
19643;SDS011;9970;-36.854;174.870;2023-02-26T22:38:30;8.10;;;8.00;;
19643;SDS011;9970;-36.854;174.870;2023-02-26T22:41:04;7.90;;;7.90;;
19643;SDS011;9970;-36.854;174.870;2023-02-26T22:43:37;8.23;;;8.13;;
19643;SDS011;9970;-36.854;174.870;2023-02-26T22:46:10;8.60;;;8.50;;
19643;SDS011;9970;-36.854;174.870;2023-02-26T22:48:44;8.20;;;8.10;;
19643;SDS011;9970;-36.854;174.870;2023-02-26T22:51:17;8.10;;;8.10;;
19643;SDS011;9970;-36.854;174.870;2023-02-26T22:53:50;8.20;;;8.10;;
19643;SDS011;9970;-36.854;174.870;2023-02-26T22:56:27;7.90;;;7.90;;
19643;SDS011;9970;-36.854;174.870;2023-02-26T22:59:00;8.50;;;8.40;;
19643;SDS011;9970;-36.854;174.870;2023-02-26T23:01:38;8.40;;;8.30;;
19643;SDS011;9970;-36.854;174.870;2023-02-26T23:04:12;8.50;;;8.40;;
19643;SDS011;9970;-36.854;174.870;2023-02-26T23:06:45;8.43;;;8.33;;
19643;SDS011;9970;-36.854;174.870;2023-02-26T23:09:18;8.50;;;8.40;;
19643;SDS011;9970;-36.854;174.870;2023-02-26T23:11:56;8.50;;;8.40;;
19643;SDS011;9970;-36.854;174.870;2023-02-26T23:17:49;8.30;;;8.20;;
19643;SDS011;9970;-36.854;174.870;2023-02-26T23:20:22;8.67;;;8.57;;
19643;SDS011;9970;-36.854;174.870;2023-02-26T23:22:55;8.60;;;8.50;;
19643;SDS011;9970;-36.854;174.870;2023-02-26T23:25:28;8.70;;;8.60;;
19643;SDS011;9970;-36.854;174.870;2023-02-26T23:28:01;8.70;;;8.60;;
19643;SDS011;9970;-36.854;174.870;2023-02-26T23:30:34;9.00;;;8.90;;
19643;SDS011;9970;-36.854;174.870;2023-02-26T23:33:08;8.60;;;8.50;;
19643;SDS011;9970;-36.854;174.870;2023-02-26T23:35:41;8.67;;;8.57;;
19643;SDS011;9970;-36.854;174.870;2023-02-26T23:38:14;8.80;;;8.70;;
19643;SDS011;9970;-36.854;174.870;2023-02-26T23:40:47;8.90;;;8.80;;
19643;SDS011;9970;-36.854;174.870;2023-02-26T23:43:24;8.50;;;8.40;;
19643;SDS011;9970;-36.854;174.870;2023-02-26T23:45:57;8.50;;;8.40;;
19643;SDS011;9970;-36.854;174.870;2023-02-26T23:48:30;8.97;;;8.87;;
19643;SDS011;9970;-36.854;174.870;2023-02-26T23:51:06;8.50;;;8.40;;
19643;SDS011;9970;-36.854;174.870;2023-02-26T23:53:39;8.40;;;8.30;;
19643;SDS011;9970;-36.854;174.870;2023-02-26T23:56:12;8.57;;;8.47;;
19643;SDS011;9970;-36.854;174.870;2023-02-26T23:58:45;8.40;;;8.30;;
